ADDS METAR Data INFO
IDs: Format: Raw Decoded Include TAF

Data at: 2251 UTC 22 Jun 2018

KMNN 222223Z AUTO 03008KT 10SM FEW080 21/18 A2972 RMK AO2 LTG DSNT N-SE RAE2156 TSE02 P0000 T02110178 $
KMNN 222208Z AUTO 34006KT 10SM VCTS FEW065 BKN085 22/18 A2970 RMK AO2 LTG DSNT N AND SE AND S RAE2156 TSE02 P0000 T02170178 $
KMNN 222153Z AUTO 10004KT 8SM -TSRA SCT025 SCT060 OVC080 20/18 A2970 RMK AO2 PK WND 20049/2126 LTG DSNT N RAB22 TSB11 SLP053 P0070 T02000178 $
KMNN 222147Z AUTO 10008KT 3SM -TSRA BR SCT029 BKN060 OVC085 19/18 A2971 RMK AO2 PK WND 20049/2126 LTG DSNT N RAB22 TSB11 P0070 $
KMNN 222144Z AUTO 10010KT 1 1/4SM TSRA BR BKN031 BKN055 OVC085 19/18 A2971 RMK AO2 PK WND 20049/2126 VIS 1/2V4 LTG DSNT N RAB22 TSB11 P0070 T01940178 $
KMNN 222140Z AUTO 11008KT 1/2SM +TSRA FG BKN025 BKN038 OVC060 19/17 A2971 RMK AO2 PK WND 20049/2126 LTG DSNT N AND SW RAB22 TSB11 P0067 T01940172 $
KMNN 222127Z AUTO 20037G49KT 1/2SM +TSRA FG SQ FEW008 SCT038 BKN050 19/17 A2973 RMK AO2 PK WND 20049/2126 LTG DSNT SW-N RAB22 TSB11 P0022 T01890167 $
KMNN 222124Z AUTO 22032G45KT 1SM TSRA FEW026 SCT038 BKN050 20/17 A2972 RMK AO2 PK WND 22045/2123 LTG DSNT W-N RAB22 TSB11 P0005 T02000172 $
KMNN 222117Z AUTO 29013KT 10SM TS FEW025 SCT036 23/18 A2973 RMK AO2 LTG DSNT SW-NW TSB11 T02280183 $
KMNN 222107Z AUTO 17003KT 10SM VCTS CLR 25/19 A2971 RMK AO2 LTG DSNT SW-NW T02500194 $
KMNN 222053Z AUTO 16006KT 10SM CLR 26/21 A2969 RMK AO2 LTG DSNT SW AND W SLP048 60000 T02610206 58014 $
KMNN 221953Z AUTO 11010KT 10SM FEW100 25/19 A2971 RMK AO2 LTG DSNT E AND W AND NW SLP056 T02500194 $
KMNN 221853Z AUTO 12005KT 10SM FEW090 SCT110 24/21 A2972 RMK AO2 LTG DSNT E AND SE RAE03 SLP058 P0000 T02390211 $
KMNN 221753Z AUTO 22007KT 6SM -RA BR SCT013 BKN065 OVC110 21/19 A2973 RMK AO2 LTG DSNT N-SE RAB02 SLP064 P0006 60010 T02110194 10244 20206 56005 $
KMNN 221748Z AUTO 21008KT 6SM -RA BR BKN013 BKN041 OVC100 21/19 A2974 RMK AO2 LTG DSNT N AND SE RAB02 P0005 $
KMNN 221737Z AUTO 21009KT 2 1/2SM RA BR SCT009 BKN017 OVC060 22/21 A2975 RMK AO2 LTG DSNT SE RAB02 P0005 T02170206 $
KMNN 221734Z AUTO 21008KT 3SM -RA BR BKN014 BKN049 OVC095 22/21 A2975 RMK AO2 LTG DSNT SE RAB02 P0003 T02220206 $
KMNN 221721Z AUTO 17009KT 6SM VCTS -RA BR BKN018 BKN033 OVC050 23/21 A2975 RMK AO2 LTG DSNT SE AND W RAB02 P0001 T02280206 $
KMNN 221710Z AUTO 17008KT 5SM VCTS -RA BR SCT020 BKN033 OVC060 23/21 A2975 RMK AO2 LTG DSNT SE-W RAB02 P0001 T02280206 $
KMNN 221701Z AUTO 15012KT 9SM VCTS BKN017 BKN024 OVC040 23/21 A2975 RMK AO2 LTG DSNT SE-SW T02330206 $
KMNN 221653Z AUTO 16008KT 10SM SCT015 BKN021 OVC032 24/21 A2974 RMK AO2 LTG DSNT SE-SW SLP067 T02390206 $
KMNN 221603Z AUTO 14011KT 10SM BKN016 OVC021 24/21 A2975 RMK AO2 LTG DSNT SW T02390206 $
KMNN 221553Z AUTO 15010KT 10SM BKN014 OVC020 24/21 A2975 RMK AO2 SLP068 T02390206 $
KMNN 221453Z AUTO 14010KT 10SM OVC012 22/20 A2976 RMK AO2 SLP071 60004 T02220200 50001 $
KMNN 221353Z AUTO 13009KT 10SM OVC011 22/19 A2977 RMK AO2 SLP075 T02170194 $
KMNN 221304Z AUTO 12008KT 9SM BKN011 OVC022 21/19 A2976 RMK AO2 CIG 008V014 T02110194 $
KMNN 221253Z AUTO 12009KT 7SM SCT011 OVC022 21/19 A2976 RMK AO2 RAB21E41 SLP074 P0004 T02060194 $
KMNN 221244Z AUTO 13007KT 7SM FEW009 SCT015 OVC022 21/19 A2976 RMK AO2 RAB21E41 P0004 T02060194
KMNN 221233Z AUTO 11009KT 2SM -RA BR FEW007 OVC022 21/19 A2976 RMK AO2 VIS 1 1/4V4 RAB21 P0004 T02060194
KMNN 221223Z AUTO 11008KT 1 3/4SM +RA BR FEW010 OVC023 21/19 A2976 RMK AO2 RAB21 P0003 T02060189
KMNN 221211Z AUTO 11010KT 8SM SCT010 OVC023 21/19 A2976 RMK AO2 T02060189 $
KMNN 221153Z AUTO 10009KT 7SM OVC009 21/19 A2976 RMK AO2 SLP071 70016 T02060189 10206 20189 50000 $
KMNN 221126Z AUTO 11009KT 8SM OVC009 21/19 A2976 RMK AO2 T02060189 $
KMNN 221103Z AUTO 10007KT 6SM BR BKN010 OVC020 20/19 A2976 RMK AO2 CIG 009V014 T02000189 $
KMNN 221053Z AUTO 10006KT 6SM BR SCT012 OVC020 20/19 A2976 RMK AO2 SLP071 T02000189 $
KMNN 221022Z AUTO 09009KT 7SM OVC015 20/18 A2975 RMK AO2 T02000183 $
KMNN 221000Z AUTO 08007KT 8SM BKN014 OVC065 20/18 A2975 RMK AO2 T02000183 $
KMNN 220953Z AUTO 10006KT 8SM SCT014 OVC065 19/18 A2976 RMK AO2 SLP071 T01940183 $
KMNN 220951Z AUTO 09006KT 8SM SCT012 OVC065 19/18 A2975 RMK AO2 $
KMNN 220853Z AUTO 08006KT 9SM BKN013 OVC060 20/18 A2975 RMK AO2 SLP070 T02000183 56003 $
KMNN 220849Z AUTO 08006KT 9SM BKN014 OVC060 20/18 A2976 RMK AO2 $
KMNN 220833Z AUTO 09005KT 7SM SCT014 OVC060 19/18 A2975 RMK AO2 T01940183 $
KMNN 220826Z AUTO 09005KT 6SM BR BKN015 OVC060 19/18 A2975 RMK AO2 T01940183 $
KMNN 220753Z AUTO 05006KT 6SM BR FEW034 BKN065 BKN100 19/18 A2975 RMK AO2 SLP067 T01890178 $
KMNN 220653Z AUTO 06007KT 7SM BKN036 OVC100 19/18 A2976 RMK AO2 SLP073 T01940183 $
KMNN 220553Z AUTO 05006KT 8SM OVC033 19/18 A2978 RMK AO2 SLP079 60013 T01940183 10222 20194 58011 $
KMNN 220453Z AUTO 04006KT 6SM BR OVC032 20/19 A2980 RMK AO2 RAB0358E10 SLP085 P0001 T02000189 402560156 $
KMNN 220353Z AUTO 05004KT 7SM OVC030 21/19 A2980 RMK AO2 SLP087 T02060194 $
KMNN 220253Z AUTO 02003KT 9SM SCT034 BKN047 OVC070 21/19 A2981 RMK AO2 RAE18 SLP091 P0000 60012 T02060194 53006 $
KMNN 220153Z AUTO 11007KT 7SM -RA BKN120 21/19 A2980 RMK AO2 SLP085 P0006 T02060194 $
KMNN 220053Z AUTO 08006KT 3SM -RA BR BKN100 21/19 A2979 RMK AO2 SLP084 P0006 T02060194
KMNN 212353Z AUTO 09004KT 8SM -RA OVC055 22/19 A2979 RMK AO2 RAB06 SLP085 P0001 60003 T02220189 10250 20222 55000
KMNN 212253Z AUTO 07006KT 10SM BKN055 OVC110 22/18 A2979 RMK AO2 RAE02 SLP083 P0000 T02220178
KMNN 212153Z AUTO 08005KT 9SM -RA SCT050 BKN110 22/18 A2979 RMK AO2 RAE21B45 SLP086 P0001 T02220178
KMNN 212053Z AUTO 10008KT 7SM -RA OVC110 23/18 A2979 RMK AO2 RAB28 SLP086 P0001 60001 T02280178 56007
KMNN 211953Z AUTO 08010KT 10SM FEW044 BKN070 OVC110 24/17 A2979 RMK AO2 SLP085 T02440172
KMNN 211853Z AUTO 08010KT 10SM FEW034 BKN075 24/17 A2980 RMK AO2 SLP088 T02440172
KMNN 211753Z AUTO 08009KT 10SM BKN065 25/17 A2982 RMK AO2 SLP092 T02500172 10256 20183 58013
KMNN 211653Z AUTO 10009KT 10SM OVC050 24/17 A2984 RMK AO2 SLP099 T02440167 $
KMNN 211553Z AUTO 08009KT 10SM BKN050 23/16 A2985 RMK AO2 SLP104 T02330156 $
KMNN 211453Z AUTO 08009KT 10SM CLR 22/16 A2986 RMK AO2 SLP105 T02220156 58003 $
KMNN 211353Z AUTO 09006KT 10SM CLR 22/16 A2987 RMK AO2 SLP109 T02170156 $
KMNN 211253Z AUTO 10009KT 10SM CLR 21/16 A2987 RMK AO2 SLP108 T02060156 $
KMNN 211153Z AUTO 08009KT 9SM CLR 18/15 A2986 RMK AO2 SLP109 70061 T01830150 10183 20156 50005 $
KMNN 211053Z AUTO 06004KT 5SM BR CLR 17/16 A2987 RMK AO2 SLP110 T01720156 $